Time;durP1;ratioP1;P1;durP2;ratioP2;P2;SDS_P1;SDS_P2;PMS_P1;PMS_P2;Temp;Humidity;BMP_temperature;BMP_pressure;BME280_temperature;BME280_humidity;BME280_pressure;Samples;Min_cycle;Max_cycle;Signal;HPM_P1;HPM_P2
2023/07/13 05:01:10;;;;;;;1.20;0.90;;;;;;;27.56;44.60;99974.89;85510;1305;545003;-64
2023/07/13 05:03:12;;;;;;;8.40;0.70;;;;;;;27.36;44.22;99976.24;87216;1285;22701;-65
2023/07/13 05:05:14;;;;;;;3.80;0.80;;;;;;;26.98;45.02;99963.50;87172;1285;136754;-63
2023/07/13 05:07:16;;;;;;;1.00;0.70;;;;;;;26.75;46.03;99977.11;87167;1285;22656;-62
2023/07/13 05:09:17;;;;;;;4.80;1.00;;;;;;;26.53;47.36;99978.52;86956;1284;137926;-63
2023/07/13 05:11:19;;;;;;;3.70;1.20;;;;;;;26.24;47.10;99976.83;87097;1286;22769;-62
2023/07/13 05:13:23;;;;;;;6.10;0.80;;;;;;;25.92;47.92;99982.64;87085;1285;138463;-63
2023/07/13 05:15:27;;;;;;;3.30;0.70;;;;;;;25.59;49.12;99980.89;87404;1283;140716;-63
2023/07/13 05:17:29;;;;;;;1.50;0.70;;;;;;;25.33;49.96;99981.38;87383;1279;138662;-63
2023/07/13 05:19:31;;;;;;;2.60;1.10;;;;;;;25.15;50.49;99981.83;87608;1281;24353;-63
2023/07/13 05:21:33;;;;;;;2.10;1.70;;;;;;;25.00;51.05;99979.90;90519;1281;138457;-65
2023/07/13 05:23:36;;;;;;;2.30;1.10;;;;;;;24.89;50.96;99980.38;90583;1280;22357;-64
2023/07/13 05:25:37;;;;;;;2.30;1.10;;;;;;;24.77;51.29;99984.62;90615;1280;139486;-63
2023/07/13 05:27:39;;;;;;;3.00;1.90;;;;;;;24.65;51.54;99982.52;90727;1280;22354;-63
2023/07/13 05:29:41;;;;;;;3.00;0.90;;;;;;;24.53;52.09;99980.48;90653;1281;138144;-63
2023/07/13 05:31:42;;;;;;;2.20;1.30;;;;;;;24.43;52.23;99975.45;90748;1280;22310;-65
2023/07/13 05:33:44;;;;;;;2.90;1.20;;;;;;;24.31;52.29;99972.69;90581;1265;137256;-65
2023/07/13 05:35:46;;;;;;;5.60;1.30;;;;;;;24.19;52.01;99969.45;90737;1280;23122;-65
2023/07/13 05:37:47;;;;;;;1.70;0.80;;;;;;;24.24;52.89;99974.34;90661;1281;138092;-74
2023/07/13 05:39:49;;;;;;;0.80;0.70;;;;;;;24.29;52.84;99972.38;90753;1281;22402;-67
2023/07/13 05:41:51;;;;;;;3.10;1.10;;;;;;;24.41;53.02;99973.18;90683;1280;137817;-64
2023/07/13 05:43:53;;;;;;;3.30;1.10;;;;;;;24.59;52.64;99974.48;90695;1272;22368;-62
2023/07/13 05:45:56;;;;;;;2.80;2.20;;;;;;;24.73;52.35;99971.91;90629;1280;136720;-62
2023/07/13 05:47:58;;;;;;;3.00;1.10;;;;;;;24.88;51.82;99969.81;90720;1282;23087;-64
2023/07/13 05:49:59;;;;;;;1.80;1.60;;;;;;;24.99;51.02;99969.12;90551;1280;136991;-64
2023/07/13 05:52:04;;;;;;;1.60;1.30;;;;;;;25.07;51.19;99967.27;90599;1281;138257;-64
2023/07/13 05:54:06;;;;;;;4.30;2.80;;;;;;;25.14;51.30;99970.66;90758;1281;22137;-63
2023/07/13 05:56:07;;;;;;;2.40;1.70;;;;;;;25.22;51.47;99972.63;90668;1280;138017;-62
2023/07/13 05:58:11;;;;;;;3.50;0.80;;;;;;;25.26;50.73;99972.59;90745;1280;22325;-62
2023/07/13 06:00:13;;;;;;;6.50;2.00;;;;;;;25.26;50.80;99970.80;90615;1281;136896;-63
2023/07/13 06:02:14;;;;;;;2.50;1.50;;;;;;;25.21;50.82;99977.27;90728;1281;22321;-62
2023/07/13 06:04:16;;;;;;;2.50;1.40;;;;;;;25.21;51.24;99975.58;90645;1280;137075;-65
2023/07/13 06:06:18;;;;;;;3.00;2.00;;;;;;;25.27;50.85;99972.63;90765;1281;22211;-63
2023/07/13 06:08:19;;;;;;;3.30;1.80;;;;;;;25.35;51.14;99973.77;90629;1281;137131;-64
2023/07/13 06:10:21;;;;;;;2.30;1.00;;;;;;;25.43;51.01;99972.17;90720;1281;22221;-63
2023/07/13 06:12:23;;;;;;;2.00;1.10;;;;;;;25.49;50.79;99967.27;90657;1281;138895;-62
2023/07/13 06:14:25;;;;;;;4.60;1.00;;;;;;;25.55;50.85;99966.86;90729;1281;22817;-64
2023/07/13 06:16:26;;;;;;;1.80;1.10;;;;;;;25.64;50.79;99962.73;90658;1282;137777;-62
2023/07/13 06:18:28;;;;;;;3.10;1.10;;;;;;;25.70;50.22;99958.27;90765;1281;23058;-63
2023/07/13 06:20:30;;;;;;;3.60;1.40;;;;;;;25.76;50.68;99959.63;90635;1280;137972;-64
2023/07/13 06:22:32;;;;;;;2.70;1.40;;;;;;;25.88;50.77;99958.36;90737;1281;22276;-68
2023/07/13 06:24:33;;;;;;;2.00;0.90;;;;;;;26.05;50.11;99957.58;90601;1281;138280;-62
2023/07/13 06:26:35;;;;;;;4.70;1.50;;;;;;;26.24;49.72;99958.77;90765;1281;22228;-61
2023/07/13 06:28:37;;;;;;;4.00;0.80;;;;;;;26.42;48.39;99964.80;90666;1284;138172;-63
2023/07/13 06:30:39;;;;;;;3.30;1.30;;;;;;;26.54;47.49;99964.23;90707;1281;22381;-63
2023/07/13 06:32:41;;;;;;;8.00;1.00;;;;;;;26.63;47.72;99961.02;90614;1281;138340;-66
2023/07/13 06:34:43;;;;;;;5.30;1.00;;;;;;;26.79;46.65;99960.86;90750;1282;22324;-64
2023/07/13 06:36:44;;;;;;;3.60;1.30;;;;;;;26.88;46.08;99962.39;90630;1285;137184;-63
2023/07/13 06:38:46;;;;;;;2.00;0.50;;;;;;;26.97;46.11;99960.39;90740;1282;22393;-63
2023/07/13 06:40:48;;;;;;;5.50;1.40;;;;;;;27.12;45.84;99959.42;90619;1282;137040;-64
2023/07/13 06:42:49;;;;;;;1.70;1.00;;;;;;;27.36;45.33;99961.17;90719;1281;22127;-62
2023/07/13 06:44:51;;;;;;;3.40;0.70;;;;;;;27.73;45.23;99958.76;90658;1281;138799;-65
2023/07/13 06:46:52;;;;;;;2.40;1.00;;;;;;;28.01;44.11;99950.05;90728;1281;23065;-64
2023/07/13 06:48:55;;;;;;;1.60;1.10;;;;;;;28.32;43.82;99959.88;90614;1282;138235;-63
2023/07/13 06:50:57;;;;;;;4.30;1.10;;;;;;;28.47;43.49;99959.63;90779;1281;22296;-63
2023/07/13 06:52:59;;;;;;;5.00;1.40;;;;;;;28.45;42.64;99957.37;90579;1281;139373;-63
2023/07/13 06:55:01;;;;;;;7.70;1.40;;;;;;;28.21;43.25;99961.04;90659;1281;22342;-63
2023/07/13 06:57:03;;;;;;;7.20;1.30;;;;;;;27.94;43.77;99963.73;90570;1281;139001;-64
2023/07/13 06:59:04;;;;;;;4.80;1.70;;;;;;;27.65;44.20;99963.27;90651;1282;22347;-63
2023/07/13 07:01:06;;;;;;;6.50;1.60;;;;;;;27.29;44.54;99953.78;90586;1281;137910;-62
2023/07/13 07:03:09;;;;;;;4.20;1.30;;;;;;;27.09;44.82;99968.77;90659;1281;22895;-63
2023/07/13 07:05:11;;;;;;;2.60;1.70;;;;;;;26.90;46.02;99972.36;90500;1276;137109;-63
2023/07/13 07:07:12;;;;;;;5.60;1.70;;;;;;;26.76;46.65;99973.34;90659;1281;22142;-63
2023/07/13 07:09:16;;;;;;;5.10;1.20;;;;;;;26.64;46.83;99970.95;90624;1281;137181;-63
2023/07/13 07:11:22;;;;;;;6.80;2.30;;;;;;;26.52;47.57;99968.25;90707;1282;22163;-64
2023/07/13 07:13:23;;;;;;;10.10;1.70;;;;;;;26.44;47.91;99972.23;90562;1265;137896;-65
2023/07/13 07:15:26;;;;;;;7.90;1.80;;;;;;;26.44;48.53;99970.23;90625;1281;22276;-64
2023/07/13 07:17:28;;;;;;;6.40;1.50;;;;;;;26.51;49.27;99973.80;90639;1282;139032;-63
2023/07/13 07:19:30;;;;;;;5.50;1.90;;;;;;;26.62;48.69;99970.54;90741;1281;23432;-66
2023/07/13 07:21:32;;;;;;;3.60;1.50;;;;;;;26.81;48.05;99968.47;90658;1281;136763;-67
2023/07/13 07:23:34;;;;;;;2.40;0.90;;;;;;;27.01;47.75;99964.79;90742;1282;22442;-63
2023/07/13 07:25:41;;;;;;;4.70;1.20;;;;;;;27.22;47.26;99963.91;90623;1282;137357;-63
2023/07/13 07:27:43;;;;;;;8.40;2.30;;;;;;;27.35;46.60;99960.34;90625;1282;23210;-60
2023/07/13 07:29:48;;;;;;;7.50;1.80;;;;;;;27.36;46.31;99962.01;90583;1281;138212;-62
2023/07/13 07:32:10;;;;;;;3.40;1.50;;;;;;;27.36;46.85;99961.73;90600;1281;137467;-64
2023/07/13 07:34:31;;;;;;;15.80;1.40;;;;;;;27.47;47.11;99961.11;90754;1280;22185;-64
2023/07/13 07:36:34;;;;;;;3.80;1.20;;;;;;;27.56;46.75;99959.14;90616;1281;149962;-63
2023/07/13 07:38:40;;;;;;;5.40;1.30;;;;;;;27.64;46.55;99958.39;90699;1281;22766;-65
2023/07/13 07:40:43;;;;;;;2.30;1.50;;;;;;;27.72;46.72;99960.70;90832;1275;137933;-63
2023/07/13 07:42:47;;;;;;;2.50;1.40;;;;;;;27.80;46.86;99963.18;91008;1275;22348;-63
2023/07/13 07:44:49;;;;;;;3.80;1.50;;;;;;;27.89;46.15;99967.04;90836;1275;136807;-64
2023/07/13 07:46:51;;;;;;;2.70;1.20;;;;;;;27.97;45.77;99960.87;90880;1275;22520;-66
2023/07/13 07:48:53;;;;;;;3.00;1.40;;;;;;;28.05;45.66;99966.30;90798;1276;137259;-64
2023/07/13 07:50:54;;;;;;;4.60;1.10;;;;;;;28.12;45.74;99970.58;90903;1275;22223;-65
2023/07/13 07:52:57;;;;;;;6.60;1.60;;;;;;;28.18;45.80;99972.31;90814;1276;138996;-64
2023/07/13 07:54:59;;;;;;;6.40;2.50;;;;;;;28.22;45.26;99977.67;90888;1275;22223;-62
2023/07/13 07:57:03;;;;;;;4.10;1.00;;;;;;;28.17;44.84;99979.17;90786;1278;137223;-64
2023/07/13 07:59:08;;;;;;;2.20;1.00;;;;;;;28.04;45.01;99975.14;90838;1278;22211;-63
2023/07/13 08:01:13;;;;;;;4.40;1.70;;;;;;;27.88;45.40;99976.68;90795;1275;137374;-63
2023/07/13 08:03:17;;;;;;;11.30;1.40;;;;;;;27.67;45.76;99967.63;90917;1276;22310;-63
2023/07/13 08:05:22;;;;;;;1.70;1.20;;;;;;;27.62;46.18;99973.38;90762;1275;138466;-62
2023/07/13 08:07:43;;;;;;;3.10;1.10;;;;;;;27.50;46.42;99966.49;90876;1275;23145;-63
2023/07/13 08:09:46;;;;;;;3.30;1.40;;;;;;;27.45;46.61;99963.34;90791;1275;137010;-62
2023/07/13 08:11:48;;;;;;;3.60;1.20;;;;;;;27.45;46.37;99959.17;90930;1275;22293;-63
2023/07/13 08:13:53;;;;;;;2.60;1.20;;;;;;;27.43;46.87;99956.76;90758;1278;139040;-64
2023/07/13 08:15:56;;;;;;;4.10;0.70;;;;;;;27.40;46.84;99956.77;90926;1276;22180;-63
2023/07/13 08:18:00;;;;;;;2.70;1.50;;;;;;;27.45;46.99;99959.12;90809;1276;137758;-62
2023/07/13 08:20:02;;;;;;;4.60;1.00;;;;;;;27.49;47.42;99958.37;90959;1276;22361;-64
2023/07/13 08:22:04;;;;;;;3.40;1.20;;;;;;;27.59;47.07;99963.21;90935;1275;22364;-63
2023/07/13 08:24:06;;;;;;;3.30;0.80;;;;;;;27.78;47.01;99967.77;90796;1275;138072;-62
2023/07/13 08:26:09;;;;;;;2.00;1.10;;;;;;;27.96;46.51;99967.69;90848;1277;22346;-61
2023/07/13 08:28:11;;;;;;;4.20;0.90;;;;;;;28.03;45.56;99970.17;90780;1275;138626;-62
2023/07/13 08:30:12;;;;;;;2.00;0.80;;;;;;;28.04;45.59;99967.09;90871;1278;23059;-64
2023/07/13 08:32:14;;;;;;;1.90;1.20;;;;;;;27.96;45.57;99966.30;90808;1275;138215;-62
2023/07/13 08:34:16;;;;;;;1.40;1.20;;;;;;;27.82;46.07;99961.76;90801;1278;22226;-63
2023/07/13 08:36:21;;;;;;;2.10;1.30;;;;;;;27.70;46.44;99962.84;90834;1275;138262;-62
2023/07/13 08:38:23;;;;;;;3.20;1.20;;;;;;;27.56;46.96;99954.23;90839;1276;22974;-66
2023/07/13 08:40:27;;;;;;;3.90;2.20;;;;;;;27.53;47.31;99952.52;90782;1272;139039;-62
2023/07/13 08:42:37;;;;;;;5.40;4.80;;;;;;;27.62;48.01;99959.84;90934;1275;22214;-64
2023/07/13 08:47:15;;;;;;;2.10;1.50;;;;;;;27.91;47.39;99959.31;85419;1311;545832;-65
2023/07/13 08:49:23;;;;;;;2.10;1.20;;;;;;;27.98;46.68;99959.26;87131;1289;139025;-65
2023/07/13 08:51:50;;;;;;;2.90;1.60;;;;;;;28.03;46.93;99953.36;87357;1289;23252;-66
2023/07/13 08:53:59;;;;;;;4.00;1.90;;;;;;;28.07;46.95;99950.83;87196;1286;137066;-65
2023/07/13 08:56:02;;;;;;;4.30;1.30;;;;;;;28.09;47.26;99948.97;87158;1292;25292;-62
2023/07/13 08:58:16;;;;;;;1.80;1.40;;;;;;;28.14;47.57;99948.09;87214;1286;24995;-63
2023/07/13 09:00:17;;;;;;;1.80;1.40;;;;;;;28.17;47.42;99943.73;79487;1290;10286648;-62
2023/07/13 09:02:45;;;;;;;7.00;1.70;;;;;;;28.13;47.69;99932.45;87274;1283;24217;-62
2023/07/13 09:05:02;;;;;;;1.50;1.10;;;;;;;28.23;47.64;99943.14;87285;1287;136947;-63
2023/07/13 09:07:33;;;;;;;3.50;1.50;;;;;;;28.15;47.90;99941.98;88199;1277;22612;-63
2023/07/13 09:10:03;;;;;;;5.50;1.50;;;;;;;28.08;47.83;99947.90;87550;1264;138516;-62
2023/07/13 09:12:25;;;;;;;6.20;1.40;;;;;;;28.08;47.74;99944.13;87526;1261;137625;-62
2023/07/13 09:14:44;;;;;;;2.30;1.20;;;;;;;28.11;47.36;99938.89;87929;1278;22593;-62
2023/07/13 09:16:48;;;;;;;2.40;1.10;;;;;;;28.14;45.41;99932.90;87333;1276;137415;-62
2023/07/13 09:18:56;;;;;;;1.70;1.00;;;;;;;28.20;44.80;99933.99;87510;1285;24336;-62
2023/07/13 09:21:05;;;;;;;2.60;1.50;;;;;;;28.29;44.65;99937.80;90778;1275;138454;-62
2023/07/13 09:23:14;;;;;;;1.50;0.90;;;;;;;28.42;44.12;99937.55;90876;1276;22344;-66
2023/07/13 09:25:32;;;;;;;3.30;0.80;;;;;;;28.54;44.19;99938.65;90698;1280;137312;-66
2023/07/13 09:27:40;;;;;;;1.70;0.90;;;;;;;28.67;44.00;99937.20;90938;1276;23172;-65
2023/07/13 09:29:49;;;;;;;2.60;1.10;;;;;;;28.78;42.58;99939.70;90819;1275;138647;-66
2023/07/13 09:31:58;;;;;;;2.60;1.00;;;;;;;28.81;42.09;99939.30;90915;1277;22168;-67
2023/07/13 09:34:02;;;;;;;1.90;1.20;;;;;;;28.82;42.18;99938.55;90834;1276;136747;-66
2023/07/13 09:36:32;;;;;;;3.90;1.20;;;;;;;28.86;42.41;99941.22;90786;1277;138283;-70
2023/07/13 09:38:34;;;;;;;1.10;0.80;;;;;;;28.85;42.40;99942.35;90812;1280;23061;-70
2023/07/13 09:40:59;;;;;;;1.20;0.70;;;;;;;28.83;42.78;99941.31;90833;1275;137237;-69
2023/07/13 09:43:03;;;;;;;3.10;1.80;;;;;;;28.81;43.00;99937.48;90929;1277;22002;-69
2023/07/13 09:45:06;;;;;;;3.90;0.90;;;;;;;28.81;42.81;99940.13;90797;1276;139011;-71
2023/07/13 09:47:23;;;;;;;1.40;1.30;;;;;;;28.75;42.97;99933.77;90930;1270;23139;-71
2023/07/13 09:49:46;;;;;;;3.50;0.90;;;;;;;28.67;43.38;99933.90;90764;1276;136835;-73
2023/07/13 09:51:47;;;;;;;1.40;0.90;;;;;;;28.58;43.65;99933.13;90892;1277;22301;-69
2023/07/13 09:53:49;;;;;;;5.90;1.20;;;;;;;28.46;43.79;99919.13;90840;1276;137356;-71
2023/07/13 09:55:51;;;;;;;6.00;0.90;;;;;;;28.45;44.01;99923.38;90889;1277;22883;-71
2023/07/13 09:57:54;;;;;;;3.90;1.00;;;;;;;28.48;44.20;99928.83;91000;1272;138225;-69
2023/07/13 09:59:58;;;;;;;2.40;0.60;;;;;;;28.43;44.37;99930.39;91117;1271;22329;-68
2023/07/13 10:02:00;;;;;;;6.40;1.20;;;;;;;28.38;44.57;99925.60;90991;1271;139344;-68
2023/07/13 10:04:12;;;;;;;1.60;1.10;;;;;;;28.35;44.64;99920.86;90990;1273;138517;-66
2023/07/13 10:06:19;;;;;;;3.50;1.10;;;;;;;28.32;44.70;99918.27;91119;1277;22399;-68
2023/07/13 10:08:27;;;;;;;1.20;1.10;;;;;;;28.33;44.78;99919.37;90972;1271;137570;-66
2023/07/13 10:10:30;;;;;;;2.00;1.10;;;;;;;28.34;44.78;99922.23;91085;1270;22326;-73
2023/07/13 10:12:36;;;;;;;4.20;1.10;;;;;;;28.37;44.71;99916.65;91028;1271;138628;-73
2023/07/13 10:14:39;;;;;;;1.50;1.20;;;;;;;28.43;44.03;99915.46;91136;1271;22272;-76
2023/07/13 10:16:44;;;;;;;3.90;1.50;;;;;;;28.46;44.40;99912.16;90993;1272;137072;-77
2023/07/13 10:18:58;;;;;;;4.00;1.60;;;;;;;28.49;44.49;99913.23;91137;1271;22170;-78
2023/07/13 10:21:36;;;;;;;3.70;1.00;;;;;;;28.54;44.12;99911.42;90964;1271;137363;-77
2023/07/13 10:23:38;;;;;;;1.00;0.80;;;;;;;28.60;43.26;99910.77;91064;1273;22281;-74
2023/07/13 10:25:44;;;;;;;2.60;1.20;;;;;;;28.62;43.13;99911.26;90882;1261;137223;-76
2023/07/13 10:27:48;;;;;;;6.70;1.40;;;;;;;28.67;43.12;99908.39;91077;1271;23002;-77
2023/07/13 10:29:57;;;;;;;1.80;0.80;;;;;;;28.70;42.55;99903.36;91003;1271;136865;-78
2023/07/13 10:31:59;;;;;;;1.80;1.00;;;;;;;28.70;42.12;99895.10;91117;1271;22289;-77
2023/07/13 10:34:02;;;;;;;1.20;0.90;;;;;;;28.68;42.03;99895.65;90990;1271;137696;-75
2023/07/13 10:36:29;;;;;;;8.50;1.40;;;;;;;28.63;42.23;99891.19;91017;1271;138897;-74
2023/07/13 10:38:30;;;;;;;1.10;0.90;;;;;;;28.58;42.77;99886.64;91090;1273;22286;-78
2023/07/13 10:40:37;;;;;;;1.10;1.00;;;;;;;28.52;43.09;99877.45;90991;1274;138134;-74
2023/07/13 10:42:43;;;;;;;1.00;0.80;;;;;;;28.47;43.18;99868.20;90982;1276;22272;-70
2023/07/13 10:44:45;;;;;;;1.90;0.80;;;;;;;28.46;43.49;99867.10;90999;1272;137226;-69
2023/07/13 10:46:47;;;;;;;1.70;1.00;;;;;;;28.46;43.77;99863.64;90954;1272;22296;-75
2023/07/13 10:48:55;;;;;;;3.90;1.30;;;;;;;28.43;43.87;99847.48;90835;1274;137576;-69
2023/07/13 10:50:59;;;;;;;3.00;0.90;;;;;;;28.56;43.77;99852.47;90928;1272;22282;-71
2023/07/13 10:53:18;;;;;;;1.80;1.70;;;;;;;28.64;43.98;99846.30;90829;1278;137077;-68
2023/07/13 10:55:42;;;;;;;2.50;1.70;;;;;;;28.79;43.92;99840.08;90955;1273;22350;-70
2023/07/13 10:57:43;;;;;;;2.00;1.60;;;;;;;28.97;43.73;99840.33;90947;1273;137766;-70
2023/07/13 11:00:09;;;;;;;2.00;1.00;;;;;;;29.12;43.80;99836.83;90983;1273;22342;-68
2023/07/13 11:02:27;;;;;;;1.60;1.10;;;;;;;29.24;43.49;99832.11;91114;1274;22269;-70
2023/07/13 11:04:41;;;;;;;2.20;1.20;;;;;;;29.29;43.59;99830.14;91023;1270;137316;-71
2023/07/13 11:06:46;;;;;;;6.90;1.40;;;;;;;29.30;43.40;99828.45;91118;1271;22920;-68
2023/07/13 11:08:54;;;;;;;2.00;1.60;;;;;;;29.32;43.00;99830.71;91008;1277;138231;-65
2023/07/13 11:10:56;;;;;;;1.20;1.10;;;;;;;29.33;43.20;99835.00;91122;1272;22210;-68
2023/07/13 11:12:59;;;;;;;6.90;1.30;;;;;;;29.37;43.12;99828.24;90982;1271;136786;-66
2023/07/13 11:15:06;;;;;;;4.30;1.10;;;;;;;29.43;43.16;99823.98;91072;1272;22335;-67
2023/07/13 11:17:32;;;;;;;3.20;1.40;;;;;;;29.51;42.97;99815.45;91000;1271;139605;-68
2023/07/13 11:19:39;;;;;;;3.50;1.20;;;;;;;29.54;43.41;99812.42;91113;1272;22442;-67
2023/07/13 11:22:07;;;;;;;1.70;1.10;;;;;;;29.58;43.37;99810.09;91048;1271;138713;-66
2023/07/13 11:24:12;;;;;;;2.10;1.20;;;;;;;29.61;43.38;99800.33;91008;1273;138509;-62
2023/07/13 11:26:42;;;;;;;1.30;1.30;;;;;;;29.66;42.79;99807.92;91110;1271;22283;-62
2023/07/13 11:28:49;;;;;;;2.40;1.30;;;;;;;29.62;42.72;99806.65;90926;1270;137937;-62
2023/07/13 11:30:56;;;;;;;8.90;1.90;;;;;;;29.58;42.90;99813.33;91020;1271;22321;-61
2023/07/13 11:33:06;;;;;;;2.00;1.90;;;;;;;29.56;42.61;99812.23;90985;1271;137125;-60
2023/07/13 11:35:23;;;;;;;4.70;2.60;;;;;;;29.52;42.65;99814.18;91071;1272;22946;-60
2023/07/13 11:37:26;;;;;;;1.80;1.60;;;;;;;29.55;42.87;99815.14;90953;1267;138214;-60
2023/07/13 11:39:31;;;;;;;3.30;2.20;;;;;;;29.60;42.67;99812.31;91082;1271;22753;-60
2023/07/13 11:41:43;;;;;;;1.80;1.50;;;;;;;29.66;42.58;99816.17;90887;1274;138926;-61
2023/07/13 11:43:49;;;;;;;6.50;2.70;;;;;;;29.73;42.40;99822.48;91097;1271;23007;-63
2023/07/13 11:45:51;;;;;;;4.00;1.70;;;;;;;29.78;42.57;99820.80;90872;1273;138516;-58
2023/07/13 11:47:53;;;;;;;2.60;1.60;;;;;;;29.82;42.42;99819.33;91008;1272;22312;-63
2023/07/13 11:49:56;;;;;;;5.40;1.70;;;;;;;29.78;42.32;99808.41;90964;1271;136948;-62
2023/07/13 11:51:59;;;;;;;3.50;2.40;;;;;;;29.81;42.43;99815.19;90897;1275;22317;-61
2023/07/13 11:54:27;;;;;;;1.50;1.30;;;;;;;29.77;42.82;99809.94;90866;1273;139381;-60
2023/07/13 11:56:32;;;;;;;1.70;1.60;;;;;;;29.73;42.77;99805.69;90880;1278;137472;-65
2023/07/13 11:58:34;;;;;;;7.00;2.10;;;;;;;29.69;43.18;99805.79;91080;1271;23233;-64
2023/07/13 12:00:38;;;;;;;2.70;1.60;;;;;;;29.71;43.24;99810.01;91005;1270;138557;-59
2023/07/13 12:02:43;;;;;;;1.90;1.80;;;;;;;29.75;42.89;99804.94;90964;1273;22772;-61
2023/07/13 12:04:45;;;;;;;1.30;1.20;;;;;;;29.81;42.89;99799.84;90965;1270;137280;-59
2023/07/13 12:06:54;;;;;;;1.80;1.70;;;;;;;29.87;43.09;99799.23;91124;1271;22342;-62
2023/07/13 12:09:03;;;;;;;2.50;2.30;;;;;;;29.93;42.83;99797.11;90904;1273;138092;-61
2023/07/13 12:11:16;;;;;;;2.50;2.10;;;;;;;29.96;42.28;99795.19;90953;1273;22387;-60
2023/07/13 12:13:18;;;;;;;2.30;2.10;;;;;;;29.96;42.57;99791.78;90972;1270;149793;-64
2023/07/13 12:15:24;;;;;;;2.20;2.00;;;;;;;29.98;42.78;99792.27;91039;1272;22217;-62
2023/07/13 12:17:28;;;;;;;2.60;2.10;;;;;;;30.01;42.80;99792.40;90937;1271;137931;-62
2023/07/13 12:19:34;;;;;;;2.70;2.50;;;;;;;30.03;43.14;99793.04;91066;1271;22341;-69
2023/07/13 12:21:42;;;;;;;4.60;2.30;;;;;;;30.04;42.80;99791.70;90989;1273;137822;-61
2023/07/13 12:23:47;;;;;;;3.60;2.00;;;;;;;30.00;43.16;99784.52;91010;1273;22424;-59
2023/07/13 12:25:51;;;;;;;2.20;2.00;;;;;;;29.99;43.45;99783.36;90990;1274;137284;-62
2023/07/13 12:27:53;;;;;;;3.40;3.10;;;;;;;29.99;43.47;99782.00;91056;1271;22503;-64
2023/07/13 12:30:02;;;;;;;6.80;3.50;;;;;;;29.95;43.60;99777.86;90979;1271;137349;-61
2023/07/13 12:32:09;;;;;;;4.30;2.60;;;;;;;29.94;43.94;99777.09;90837;1272;139181;-68
2023/07/13 12:34:14;;;;;;;2.70;2.30;;;;;;;29.94;44.11;99773.50;91071;1271;22330;-62
2023/07/13 12:36:17;;;;;;;3.20;2.80;;;;;;;29.92;44.33;99773.58;90971;1272;139923;-61
2023/07/13 12:38:22;;;;;;;5.30;2.80;;;;;;;29.89;44.43;99766.64;91101;1271;22197;-66
2023/07/13 12:40:31;;;;;;;3.60;2.20;;;;;;;29.91;44.82;99768.69;90994;1271;138000;-61
2023/07/13 12:42:39;;;;;;;3.30;3.00;;;;;;;29.93;44.80;99761.21;91050;1270;22356;-60
2023/07/13 12:44:42;;;;;;;2.40;2.30;;;;;;;30.06;44.91;99763.21;90881;1273;138390;-61
2023/07/13 12:46:53;;;;;;;2.40;2.30;;;;;;;30.12;44.87;99753.85;91042;1271;23199;-63
2023/07/13 12:48:57;;;;;;;2.70;2.50;;;;;;;30.14;44.85;99748.93;90966;1271;138549;-61
2023/07/13 12:51:22;;;;;;;6.70;2.30;;;;;;;30.13;45.04;99748.48;90964;1273;22308;-64
2023/07/13 12:53:30;;;;;;;4.00;3.60;;;;;;;30.11;45.02;99749.35;90976;1271;138430;-60
2023/07/13 12:55:42;;;;;;;6.30;2.30;;;;;;;30.09;45.16;99747.54;91074;1271;23005;-63
2023/07/13 12:57:50;;;;;;;4.20;2.90;;;;;;;30.10;45.23;99747.89;90969;1271;138630;-62
2023/07/13 12:59:55;;;;;;;5.10;2.50;;;;;;;30.12;44.94;99745.69;91031;1271;22394;-67
2023/07/13 13:01:59;;;;;;;5.50;2.60;;;;;;;30.13;45.12;99744.00;90875;1274;137397;-67
2023/07/13 13:04:06;;;;;;;2.90;2.70;;;;;;;30.10;45.57;99742.88;90972;1273;23084;-61
2023/07/13 13:06:21;;;;;;;3.30;2.40;;;;;;;30.07;45.63;99738.86;91072;1271;22338;-61
2023/07/13 13:08:23;;;;;;;5.00;2.20;;;;;;;30.02;45.07;99734.27;90938;1270;137169;-60
2023/07/13 13:10:26;;;;;;;2.40;2.20;;;;;;;30.02;45.27;99737.23;91130;1272;22426;-61
2023/07/13 13:12:27;;;;;;;3.60;2.40;;;;;;;30.04;45.32;99733.94;90970;1261;139593;-61
2023/07/13 13:14:29;;;;;;;3.20;3.00;;;;;;;30.08;45.61;99729.60;91088;1272;22148;-60
2023/07/13 13:16:33;;;;;;;3.10;2.80;;;;;;;30.12;46.04;99721.75;90927;1260;137285;-62
2023/07/13 13:18:35;;;;;;;10.00;5.30;;;;;;;30.16;45.89;99712.00;91050;1261;22190;-61
2023/07/13 13:20:37;;;;;;;8.40;3.80;;;;;;;30.18;46.19;99711.60;90966;1271;137752;-64
2023/07/13 13:22:39;;;;;;;2.30;2.20;;;;;;;30.19;46.15;99706.77;91059;1271;22312;-62
2023/07/13 13:24:41;;;;;;;3.30;3.10;;;;;;;30.15;45.92;99703.56;90973;1273;138746;-61
2023/07/13 13:26:43;;;;;;;3.80;3.10;;;;;;;30.11;46.27;99703.95;91074;1271;22335;-60
2023/07/13 13:28:47;;;;;;;2.90;2.80;;;;;;;30.04;46.54;99703.31;90966;1271;139222;-61
2023/07/13 13:30:50;;;;;;;4.00;3.40;;;;;;;29.97;46.86;99703.38;91043;1273;22202;-61
2023/07/13 13:32:52;;;;;;;3.80;3.10;;;;;;;29.93;47.22;99706.66;90932;1271;138047;-62
2023/07/13 13:34:54;;;;;;;3.10;2.90;;;;;;;29.88;47.33;99703.81;91053;1271;22414;-63
2023/07/13 13:36:56;;;;;;;3.30;2.90;;;;;;;29.87;47.72;99704.25;90884;1273;137640;-62
2023/07/13 13:39:01;;;;;;;4.90;2.80;;;;;;;29.88;47.37;99703.10;91081;1271;22211;-62
2023/07/13 13:41:04;;;;;;;3.20;3.00;;;;;;;29.93;47.09;99701.62;90948;1258;137394;-61
2023/07/13 13:43:26;;;;;;;4.90;3.20;;;;;;;29.98;47.82;99698.06;91059;1271;22953;-62
2023/07/13 13:45:27;;;;;;;2.90;2.80;;;;;;;30.03;47.95;99696.67;90879;1274;137399;-62
2023/07/13 13:47:32;;;;;;;4.40;2.70;;;;;;;30.05;47.83;99689.48;91066;1271;22936;-63
2023/07/13 13:49:36;;;;;;;2.80;2.60;;;;;;;30.06;47.79;99683.14;91046;1272;138204;-61
2023/07/13 13:51:37;;;;;;;3.80;2.90;;;;;;;30.05;47.86;99679.81;91058;1271;22192;-62
2023/07/13 13:53:39;;;;;;;5.10;2.80;;;;;;;30.06;47.90;99678.90;90950;1271;137520;-63
2023/07/13 13:55:41;;;;;;;3.80;3.10;;;;;;;30.05;47.70;99677.29;91102;1271;22420;-61
2023/07/13 13:57:43;;;;;;;2.80;2.60;;;;;;;30.06;48.00;99678.67;90937;1271;138308;-61
2023/07/13 13:59:44;;;;;;;2.40;2.00;;;;;;;30.08;48.06;99678.44;91037;1271;22339;-62
2023/07/13 14:01:48;;;;;;;3.40;3.00;;;;;;;30.08;47.79;99676.95;90980;1264;138374;-62
2023/07/13 14:03:53;;;;;;;;;;;;;;;30.09;47.48;99676.33;91145;1272;22429;-61
2023/07/13 14:05:57;;;;;;;3.10;2.90;;;;;;;30.01;47.84;99675.96;90969;1274;123568;-61
2023/07/13 14:07:59;;;;;;;4.30;3.30;;;;;;;29.92;48.09;99673.35;91100;1271;22186;-60
2023/07/13 14:10:01;;;;;;;3.50;3.00;;;;;;;29.89;48.21;99671.51;90975;1271;138125;-62
2023/07/13 14:12:04;;;;;;;5.80;2.90;;;;;;;29.89;48.15;99668.36;90971;1271;138583;-62
2023/07/13 14:14:14;;;;;;;3.30;3.10;;;;;;;29.92;48.02;99669.05;91062;1271;23105;-61
2023/07/13 14:16:18;;;;;;;3.60;3.10;;;;;;;29.98;47.90;99666.35;90970;1271;138289;-61
2023/07/13 14:18:20;;;;;;;3.90;3.10;;;;;;;30.05;48.03;99662.85;91029;1274;22308;-62
2023/07/13 14:20:23;;;;;;;5.20;2.90;;;;;;;30.14;48.25;99660.28;90998;1271;137725;-63
2023/07/13 14:22:26;;;;;;;7.00;2.90;;;;;;;30.23;47.95;99659.05;91064;1261;22829;-61
2023/07/13 14:24:28;;;;;;;6.60;3.80;;;;;;;30.26;47.63;99656.86;90902;1271;137310;-60
2023/07/13 14:26:32;;;;;;;3.00;2.80;;;;;;;30.26;47.64;99654.48;91088;1271;23024;-61
2023/07/13 14:28:34;;;;;;;4.00;3.20;;;;;;;30.24;47.72;99647.92;90954;1270;139380;-61
2023/07/13 14:30:36;;;;;;;5.20;2.90;;;;;;;30.22;47.84;99648.96;91015;1260;22395;-61
2023/07/13 14:32:38;;;;;;;7.80;2.80;;;;;;;30.17;48.01;99644.67;90981;1271;137273;-60
2023/07/13 14:34:40;;;;;;;6.90;3.10;;;;;;;30.12;48.13;99640.03;91072;1271;22358;-61
2023/07/13 14:36:47;;;;;;;5.10;3.10;;;;;;;30.09;48.09;99634.91;90959;1271;137227;-61
2023/07/13 14:38:49;;;;;;;3.40;3.10;;;;;;;30.08;48.50;99633.63;91064;1271;22279;-62
2023/07/13 14:40:51;;;;;;;3.50;3.30;;;;;;;30.07;48.43;99630.27;90953;1267;137962;-61
2023/07/13 14:42:52;;;;;;;7.00;2.90;;;;;;;30.07;48.45;99632.77;91084;1271;22348;-61
2023/07/13 14:44:54;;;;;;;5.00;3.40;;;;;;;30.08;48.57;99631.50;90888;1273;138111;-63
2023/07/13 14:47:05;;;;;;;3.30;3.00;;;;;;;30.15;48.69;99633.61;91104;1269;22199;-61
2023/07/13 14:49:30;;;;;;;5.00;3.50;;;;;;;30.17;48.81;99626.09;90952;1271;137881;-62
2023/07/13 14:51:34;;;;;;;8.10;4.70;;;;;;;30.18;48.68;99621.65;91094;1271;22384;-61